首页
METAR-TAF:

METAR-TAF

机场 :

Smithers, 不列颠哥伦比亚, 加拿大

纬度: 54-49N, 经度: 127-11W, 海拔: 523米

当前天气观测

该预报发布于27分钟前的13:06 UTC
静风
温度 5°C
湿度 100%
气压 1019 hPa
能見度: 14.5公里
散云层高于12000英尺

METAR: CYYD 221306Z AUTO 00000KT 9SM SCT120 05/05 A3009 RMK SLP198

时间: 06:33 (13:33 UTC)

预报

该预报发布于12小时和55分钟前的00:38 UTC
预报有效从22日的 01点(UTC)到 22日的 06点(UTC)
风速3节,风向多变
能見度: 10公里
散云层高于6000英尺
短暂存在
从 22日的 01点(UTC)到 22日的 04点(UTC)
能見度: 10公里
多云层高于6000英尺
小阵雨
几率 30%
从 22日的 01点(UTC)到 22日的 04点(UTC)
风速15节,风向多变,有时为25节阵风
能見度: 8.0公里
多云层高于5000英尺, 积雨云.
雷暴, 雨

TAF: CYYD 220038Z 2201/2206 VRB03KT P6SM SCT060 TEMPO 2201/2204 P6SM -SHRA BKN060 PROB30 2201/2204 VRB15G25KT 5SM TSRA BKN050CB RMK NXT FCST WILL BE ISSUED AT 221345Z

超过4000个机场的气象观测和天气预报(METAR&TAF报告)。

可查询的气象台以黄色和红色小点在地图上表示。

将鼠标移到小点上方,可查看气象台名称。

然后点击查看天气观测和预报。

如需切换地图:点击带黑十字的绿色按钮放大地图;点击带横线的绿色按钮缩小地图;或者点击绿色箭头查看邻近地区的地图。


METAR-TAF: